This is the latest recevied weather packets stored in our database for station/object 9W2RUT-G. If no packets are shown the sender has not sent any weather packets the latest 10 day(s).
| Time | Temp. | Humidity | Pressure | Rain* | Wind** | Luminosity | Snow |
|---|---|---|---|---|---|---|---|
| 1777651230 | 30.56° C | 48% | 1013.6 hPa | - | - | - | - |
| 1777650352 | 32.78° C | 43% | 1013.7 hPa | - | - | - | - |
| 1777649452 | 32.22° C | 44% | 1013.8 hPa | - | - | - | - |
| 1777648551 | 32.78° C | 44% | 1013.8 hPa | - | - | - | - |
| 1777647650 | 32.22° C | 43% | 1014 hPa | - | - | - | - |
| 1777646750 | 32.22° C | 43% | 1013.8 hPa | - | - | - | - |
| 1777645850 | 32.22° C | 42% | 1013.7 hPa | - | - | - | - |
| 1777644950 | 32.22° C | 41% | 1013.6 hPa | - | - | - | - |
| 1777644049 | 31.67° C | 40% | 1013.4 hPa | - | - | - | - |
| 1777643148 | 31.67° C | 38% | 1013.2 hPa | - | - | - | - |
| 1777642248 | 31.11° C | 37% | 1013.1 hPa | - | - | - | - |
| 1777641348 | 30° C | 34% | 1012.8 hPa | - | - | - | - |
| 1777640447 | 27.78° C | 30% | 1012.9 hPa | - | - | - | - |
| 1777639547 | 27.78° C | 31% | 1013 hPa | - | - | - | - |
| 1777638688 | 27.78° C | 33% | 1012.9 hPa | - | - | - | - |
| 1777638647 | 27.78° C | 33% | 1012.9 hPa | - | - | - | - |
| 1777637747 | 28.33° C | 34% | 1012.8 hPa | - | - | - | - |
| 1777636846 | 28.33° C | 32% | 1012.5 hPa | - | - | - | - |
| 1777635946 | 28.89° C | 30% | 1012.6 hPa | - | - | - | - |
| 1777635046 | 29.44° C | 28% | 1012.3 hPa | - | - | - | - |
| 1777634146 | 30° C | 29% | 1012.1 hPa | - | - | - | - |
| 1777633245 | 31.67° C | 29% | 1012.2 hPa | - | - | - | - |
| 1777632345 | 35° C | 42% | 1012.6 hPa | - | - | - | - |
| 1777631444 | 35° C | 42% | 1012.7 hPa | - | - | - | - |
| 1777630544 | 35° C | 43% | 1012.6 hPa | - | - | - | - |
* Rain since midnight (hover to see other rain measurements)
** Current wind speed in m/s (hover to see current wind gust speed)